Time;durP1;ratioP1;P1;durP2;ratioP2;P2;SDS_P1;SDS_P2;PMS_P1;PMS_P2;Temp;Humidity;BMP_temperature;BMP_pressure;BME280_temperature;BME280_humidity;BME280_pressure;Samples;Min_cycle;Max_cycle;Signal;HPM_P1;HPM_P2
2021/08/21 00:00:51;;;;;;;11.63;3.20;;;13.10;83.90;;;;;;5056984;28;20197;-86
2021/08/21 00:03:16;;;;;;;6.63;2.50;;;13.00;84.00;;;;;;5075286;28;20278;-86
2021/08/21 00:05:42;;;;;;;5.10;3.07;;;13.00;84.00;;;;;;5075214;28;20245;-86
2021/08/21 00:08:08;;;;;;;4.40;2.90;;;13.00;83.90;;;;;;5056670;28;20182;-86
2021/08/21 00:10:35;;;;;;;2.70;2.50;;;13.00;84.00;;;;;;5074825;28;20215;-86
2021/08/21 00:13:01;;;;;;;6.40;2.70;;;13.00;84.10;;;;;;5056968;28;20180;-86
2021/08/21 00:15:27;;;;;;;8.87;2.80;;;12.90;84.00;;;;;;5057013;28;20244;-86
2021/08/21 00:17:54;;;;;;;6.63;2.57;;;12.80;83.80;;;;;;5074893;28;20254;-86
2021/08/21 00:20:20;;;;;;;7.60;2.97;;;12.80;83.90;;;;;;5056524;28;20213;-86
2021/08/21 00:22:46;;;;;;;4.83;2.73;;;12.80;83.80;;;;;;5056710;28;20171;-85
2021/08/21 00:25:13;;;;;;;7.67;3.17;;;12.80;83.70;;;;;;5073866;28;20653;-86
2021/08/21 00:27:41;;;;;;;3.37;2.57;;;12.80;83.60;;;;;;5056798;28;20634;-86
2021/08/21 00:30:08;;;;;;;5.17;2.60;;;12.70;83.50;;;;;;5039949;28;20211;-85
2021/08/21 00:32:34;;;;;;;16.83;3.07;;;12.70;83.40;;;;;;5056398;28;20237;-85
2021/08/21 00:35:00;;;;;;;5.07;2.60;;;12.70;83.40;;;;;;5074486;28;20191;-86
2021/08/21 00:37:26;;;;;;;9.23;3.23;;;12.60;83.30;;;;;;5056405;28;20175;-86
2021/08/21 00:39:51;;;;;;;4.43;2.90;;;12.60;83.30;;;;;;5056556;28;20757;-86
2021/08/21 00:42:17;;;;;;;8.43;3.47;;;12.60;83.40;;;;;;5056235;28;20171;-86
2021/08/21 00:44:43;;;;;;;3.70;3.37;;;12.50;83.50;;;;;;5056150;28;20171;-86
2021/08/21 00:47:13;;;;;;;7.27;3.53;;;12.50;83.50;;;;;;5056249;28;20205;-85
2021/08/21 00:49:42;;;;;;;9.97;3.70;;;12.50;83.80;;;;;;5074342;28;20525;-86
2021/08/21 00:52:14;;;;;;;4.00;3.30;;;12.40;83.80;;;;;;5055910;28;20195;-86
2021/08/21 00:54:40;;;;;;;8.83;3.37;;;12.30;83.80;;;;;;5074154;28;20152;-86
2021/08/21 00:57:07;;;;;;;6.83;3.27;;;12.30;83.90;;;;;;5056844;28;20225;-85
2021/08/21 00:59:37;;;;;;;9.70;3.10;;;12.20;84.00;;;;;;5073785;28;20212;-85
2021/08/21 01:02:07;;;;;;;7.70;3.10;;;12.20;84.00;;;;;;5073972;28;20188;-85
2021/08/21 01:04:35;;;;;;;11.57;3.47;;;12.10;84.10;;;;;;5055753;28;20541;-84
2021/08/21 01:07:28;;;;;;;11.70;3.50;;;12.00;84.20;;;;;;5055773;28;20171;-85
2021/08/21 01:09:55;;;;;;;4.93;3.17;;;12.10;84.40;;;;;;5069423;28;20556;-85
2021/08/21 01:12:22;;;;;;;10.77;4.00;;;12.10;84.50;;;;;;5055691;28;20187;-85
2021/08/21 01:14:49;;;;;;;5.47;4.17;;;12.10;84.50;;;;;;5055546;28;20203;-85
2021/08/21 01:17:16;;;;;;;5.33;3.30;;;12.10;84.50;;;;;;5073526;28;20172;-85
2021/08/21 01:19:45;;;;;;;4.93;3.57;;;12.10;84.40;;;;;;5073485;28;20171;-85
2021/08/21 01:22:14;;;;;;;11.13;6.17;;;12.10;84.30;;;;;;5055359;28;20210;-85
2021/08/21 01:24:41;;;;;;;38.60;6.40;;;12.00;85.90;;;;;;5055473;28;20262;-85
2021/08/21 01:27:13;;;;;;;20.00;4.43;;;12.00;87.00;;;;;;5055430;28;20167;-85
2021/08/21 01:29:40;;;;;;;6.80;4.30;;;11.80;87.00;;;;;;5073441;28;20156;-85
2021/08/21 01:32:06;;;;;;;8.57;4.43;;;11.90;86.40;;;;;;5055285;28;20571;-85
2021/08/21 01:34:32;;;;;;;7.87;3.90;;;11.90;86.30;;;;;;5073556;28;20172;-85
2021/08/21 01:36:58;;;;;;;6.60;3.50;;;11.90;86.00;;;;;;5073261;28;20194;-85
2021/08/21 01:39:24;;;;;;;5.00;3.47;;;12.00;85.70;;;;;;5073214;28;20583;-85
2021/08/21 01:41:49;;;;;;;5.27;4.33;;;11.90;85.40;;;;;;5073233;28;20214;-84
2021/08/21 01:44:17;;;;;;;10.83;3.70;;;11.90;85.20;;;;;;5073154;28;20175;-84
2021/08/21 01:46:48;;;;;;;17.83;4.93;;;11.90;85.50;;;;;;5055157;28;20313;-84
2021/08/21 01:49:15;;;;;;;18.33;5.00;;;11.80;85.90;;;;;;5055287;28;20168;-85
2021/08/21 01:51:43;;;;;;;16.23;4.87;;;11.70;86.20;;;;;;5055034;28;20214;-85
2021/08/21 01:54:16;;;;;;;8.47;4.23;;;11.60;86.30;;;;;;5055048;28;20186;-85
2021/08/21 01:56:51;;;;;;;13.03;4.43;;;11.60;86.80;;;;;;5073056;28;20658;-85
2021/08/21 01:59:25;;;;;;;17.13;5.17;;;11.50;87.00;;;;;;5073353;28;20155;-85
2021/08/21 02:01:52;;;;;;;11.33;5.53;;;11.50;87.20;;;;;;5073036;28;20187;-84
2021/08/21 02:04:19;;;;;;;10.80;5.17;;;11.50;87.30;;;;;;5072972;28;20304;-85
2021/08/21 02:06:45;;;;;;;7.87;4.67;;;11.50;87.00;;;;;;5072928;28;20171;-85
2021/08/21 02:09:16;;;;;;;10.30;4.53;;;11.40;86.70;;;;;;5072976;28;20172;-85
2021/08/21 02:11:43;;;;;;;16.10;4.23;;;11.40;86.70;;;;;;5054963;28;20222;-84
2021/08/21 02:14:09;;;;;;;14.17;5.07;;;11.40;86.80;;;;;;5054913;28;20179;-84
2021/08/21 02:16:35;;;;;;;8.57;4.80;;;11.40;86.70;;;;;;5054925;28;20220;-84
2021/08/21 02:19:01;;;;;;;9.57;4.93;;;11.40;86.40;;;;;;5072855;28;20171;-85
2021/08/21 02:21:27;;;;;;;7.60;4.83;;;11.30;86.20;;;;;;5054751;28;20584;-85
2021/08/21 02:23:55;;;;;;;14.80;4.87;;;11.40;85.90;;;;;;5072758;28;20582;-85
2021/08/21 02:26:20;;;;;;;11.57;4.40;;;11.40;85.70;;;;;;5054815;28;20175;-85
2021/08/21 02:28:46;;;;;;;13.33;4.70;;;11.30;85.60;;;;;;5054861;28;20182;-85
2021/08/21 02:31:12;;;;;;;14.93;4.73;;;11.30;85.80;;;;;;5072816;28;20203;-85
2021/08/21 02:33:38;;;;;;;7.13;4.73;;;11.30;86.20;;;;;;5072752;28;20171;-85
2021/08/21 02:36:04;;;;;;;9.10;4.20;;;11.30;86.40;;;;;;5072642;28;20241;-85
2021/08/21 02:38:30;;;;;;;9.27;3.80;;;11.20;86.60;;;;;;5054733;28;20179;-85
2021/08/21 02:40:56;;;;;;;6.73;2.60;;;11.30;86.80;;;;;;5054588;28;20690;-85
2021/08/21 02:43:22;;;;;;;3.73;2.23;;;11.20;86.90;;;;;;5054703;28;20270;-85
2021/08/21 02:45:48;;;;;;;4.10;1.90;;;11.10;87.10;;;;;;5072618;28;20175;-85
2021/08/21 02:48:14;;;;;;;6.83;2.07;;;11.10;87.20;;;;;;5072723;28;20662;-85
2021/08/21 02:50:40;;;;;;;2.40;1.57;;;11.10;87.20;;;;;;5058320;28;20195;-85
2021/08/21 02:53:06;;;;;;;2.80;2.17;;;11.00;87.10;;;;;;5058360;28;20596;-85
2021/08/21 02:55:31;;;;;;;4.77;2.23;;;11.00;87.20;;;;;;5076137;28;20195;-85
2021/08/21 02:57:57;;;;;;;5.73;2.20;;;11.00;87.60;;;;;;5058588;28;20209;-85
2021/08/21 03:00:22;;;;;;;5.97;1.73;;;11.00;87.40;;;;;;5076079;28;20198;-85
2021/08/21 03:02:49;;;;;;;4.67;2.00;;;11.00;87.40;;;;;;5076139;28;20516;-85
2021/08/21 03:05:14;;;;;;;2.20;2.00;;;11.00;87.30;;;;;;5058157;28;20635;-85
2021/08/21 03:07:40;;;;;;;5.37;2.10;;;11.00;87.20;;;;;;5058036;28;20190;-85
2021/08/21 03:10:07;;;;;;;12.73;3.00;;;11.00;86.90;;;;;;5075900;28;20177;-85
2021/08/21 03:12:33;;;;;;;3.60;2.17;;;11.00;86.70;;;;;;5057964;28;20190;-85
2021/08/21 03:14:59;;;;;;;2.30;1.93;;;10.90;86.90;;;;;;5076150;28;20180;-85
2021/08/21 03:17:25;;;;;;;8.50;3.13;;;10.80;87.10;;;;;;5075846;28;20654;-85
2021/08/21 03:19:51;;;;;;;3.43;2.47;;;10.90;86.70;;;;;;5076041;28;20182;-85
2021/08/21 03:22:18;;;;;;;3.50;2.57;;;10.90;86.50;;;;;;5057780;28;20229;-85
2021/08/21 03:24:43;;;;;;;7.67;2.63;;;10.90;86.40;;;;;;5075707;28;20203;-85
2021/08/21 03:27:09;;;;;;;13.47;3.50;;;10.90;86.40;;;;;;5057713;28;20634;-85
2021/08/21 03:29:35;;;;;;;6.33;3.17;;;10.90;87.30;;;;;;5075569;28;20172;-85
2021/08/21 03:32:01;;;;;;;5.70;3.07;;;10.90;88.00;;;;;;5075463;28;20202;-85
2021/08/21 03:34:26;;;;;;;3.50;2.70;;;10.90;88.10;;;;;;5057508;28;20182;-85
2021/08/21 03:36:53;;;;;;;3.43;2.23;;;11.00;88.40;;;;;;5057422;28;20286;-85
2021/08/21 03:39:19;;;;;;;9.70;3.20;;;11.00;88.30;;;;;;5057823;28;20521;-85
2021/08/21 03:41:45;;;;;;;21.13;3.30;;;11.10;88.30;;;;;;5057343;28;20671;-85
2021/08/21 03:44:11;;;;;;;10.33;2.70;;;11.30;89.00;;;;;;5057450;28;20627;-85
2021/08/21 03:46:37;;;;;;;14.73;3.60;;;11.30;89.20;;;;;;5057385;28;20270;-84
2021/08/21 03:49:03;;;;;;;12.40;3.33;;;11.30;89.30;;;;;;5075170;28;20186;-85
2021/08/21 03:51:29;;;;;;;16.07;2.50;;;11.30;89.30;;;;;;5075220;28;20203;-85
2021/08/21 03:53:55;;;;;;;3.03;2.30;;;11.40;89.30;;;;;;5075189;28;20188;-85
2021/08/21 03:56:21;;;;;;;14.03;3.00;;;11.40;89.20;;;;;;5075014;28;20195;-85
2021/08/21 03:58:47;;;;;;;4.43;3.40;;;11.50;89.10;;;;;;5057160;28;20320;-85
2021/08/21 04:01:12;;;;;;;6.30;3.47;;;11.50;89.10;;;;;;5056974;28;20278;-85
2021/08/21 04:03:38;;;;;;;7.73;4.83;;;11.50;89.80;;;;;;5056975;28;20584;-85
2021/08/21 04:06:07;;;;;;;8.20;5.30;;;11.50;91.10;;;;;;5056896;28;20256;-85
2021/08/21 04:08:32;;;;;;;13.00;6.40;;;11.50;91.20;;;;;;5056974;28;20190;-85
2021/08/21 04:10:58;;;;;;;14.67;7.37;;;11.50;91.40;;;;;;5057262;28;20199;-85
2021/08/21 04:13:23;;;;;;;19.20;7.37;;;11.60;91.40;;;;;;5056846;28;20544;-85
2021/08/21 04:15:49;;;;;;;15.63;8.33;;;11.80;91.60;;;;;;5056764;28;20249;-85
2021/08/21 04:18:15;;;;;;;17.97;7.97;;;11.80;91.70;;;;;;5056737;28;20178;-85
2021/08/21 04:20:40;;;;;;;11.30;7.40;;;11.80;91.70;;;;;;5074562;28;20284;-85
2021/08/21 04:23:06;;;;;;;14.40;5.90;;;11.70;91.80;;;;;;5056672;28;20244;-85
2021/08/21 04:25:32;;;;;;;11.97;6.13;;;11.80;91.80;;;;;;5074500;28;20723;-85
2021/08/21 04:27:57;;;;;;;10.43;5.97;;;11.80;91.80;;;;;;5056617;28;20180;-85
2021/08/21 04:30:23;;;;;;;13.67;6.27;;;11.80;91.70;;;;;;5056369;28;20231;-85
2021/08/21 04:32:49;;;;;;;7.97;5.47;;;11.70;91.70;;;;;;5056522;28;20183;-85
2021/08/21 04:35:14;;;;;;;11.93;5.70;;;11.70;91.60;;;;;;5056386;28;20203;-85
2021/08/21 04:37:40;;;;;;;9.70;5.97;;;11.70;91.60;;;;;;5056411;28;20202;-85
2021/08/21 04:40:07;;;;;;;10.60;6.30;;;11.70;91.60;;;;;;5056276;28;20171;-85
2021/08/21 04:42:32;;;;;;;9.87;5.53;;;11.80;91.60;;;;;;5074140;28;20171;-85
2021/08/21 04:45:01;;;;;;;12.67;6.03;;;11.80;91.70;;;;;;5074488;28;20631;-85
2021/08/21 04:47:28;;;;;;;13.03;6.17;;;11.80;91.60;;;;;;5056180;28;20171;-85
2021/08/21 04:49:56;;;;;;;9.53;6.60;;;11.90;91.60;;;;;;5056022;28;20199;-85
2021/08/21 04:52:22;;;;;;;10.77;5.63;;;11.90;91.60;;;;;;5056063;28;20171;-84
2021/08/21 04:54:50;;;;;;;12.73;5.97;;;11.90;91.50;;;;;;5074056;28;20199;-85
2021/08/21 04:57:16;;;;;;;11.20;6.70;;;11.90;91.50;;;;;;5073976;28;20163;-85
2021/08/21 04:59:42;;;;;;;10.50;5.60;;;11.90;91.50;;;;;;5073765;28;20258;-85
2021/08/21 05:02:08;;;;;;;12.30;6.60;;;12.00;91.50;;;;;;5055868;28;20237;-85
2021/08/21 05:04:34;;;;;;;19.93;6.97;;;12.00;91.60;;;;;;5055866;28;20638;-85
2021/08/21 05:07:00;;;;;;;27.70;8.27;;;12.00;91.50;;;;;;5073719;28;20210;-85
2021/08/21 05:09:25;;;;;;;14.67;7.17;;;12.10;91.50;;;;;;5073693;28;20207;-85
2021/08/21 05:11:51;;;;;;;17.37;7.50;;;12.10;91.50;;;;;;5055340;28;20195;-85
2021/08/21 05:14:18;;;;;;;19.40;7.87;;;12.20;91.60;;;;;;5055836;28;20194;-85
2021/08/21 05:16:46;;;;;;;21.43;8.77;;;12.30;91.60;;;;;;5073552;28;20576;-85
2021/08/21 05:19:35;;;;;;;17.73;9.70;;;12.30;91.60;;;;;;5055540;28;20711;-85
2021/08/21 05:24:56;;;;;;;20.07;11.03;;;12.30;91.90;;;;;;5019374;28;20288;-85
2021/08/21 05:27:24;;;;;;;16.50;10.67;;;12.40;92.10;;;;;;5073827;28;20202;-85
2021/08/21 05:29:50;;;;;;;17.53;10.33;;;12.60;92.20;;;;;;5073673;28;20175;-85
2021/08/21 05:32:16;;;;;;;11.20;9.47;;;12.70;92.20;;;;;;5073390;28;20171;-85
2021/08/21 05:34:42;;;;;;;10.80;9.70;;;12.70;92.20;;;;;;5073566;28;20658;-85
2021/08/21 05:37:08;;;;;;;12.43;11.00;;;12.80;92.30;;;;;;5073277;28;20675;-85
2021/08/21 05:39:34;;;;;;;15.30;11.63;;;12.80;92.40;;;;;;5073562;28;20171;-85
2021/08/21 05:42:00;;;;;;;16.30;12.03;;;12.90;92.50;;;;;;5055264;28;20195;-85
2021/08/21 05:44:26;;;;;;;17.60;11.63;;;13.10;92.60;;;;;;5055342;28;20175;-85
2021/08/21 05:46:52;;;;;;;19.90;12.30;;;13.20;92.70;;;;;;5055252;28;20175;-85
2021/08/21 05:49:18;;;;;;;14.30;11.40;;;13.20;92.70;;;;;;5073290;28;20190;-85
2021/08/21 05:51:43;;;;;;;16.13;13.20;;;13.30;92.60;;;;;;5055221;28;20205;-85
2021/08/21 05:54:09;;;;;;;18.70;14.50;;;13.30;92.70;;;;;;5055493;28;20271;-85
2021/08/21 05:56:35;;;;;;;20.17;14.63;;;13.40;92.70;;;;;;5055120;28;20203;-85
2021/08/21 05:59:00;;;;;;;19.83;14.90;;;13.40;92.70;;;;;;5073058;28;20258;-85
2021/08/21 06:01:26;;;;;;;26.80;16.53;;;13.50;92.80;;;;;;5073026;28;20187;-85
2021/08/21 06:03:51;;;;;;;18.50;13.97;;;13.60;92.90;;;;;;5073362;28;20171;-85
2021/08/21 06:06:19;;;;;;;24.00;15.00;;;13.70;93.00;;;;;;5055048;28;20183;-85
2021/08/21 06:08:45;;;;;;;21.17;14.30;;;13.70;92.90;;;;;;5055006;28;20182;-85
2021/08/21 06:11:11;;;;;;;19.77;13.93;;;13.80;93.00;;;;;;5073025;28;20199;-85
2021/08/21 06:13:37;;;;;;;22.50;14.67;;;13.80;92.90;;;;;;5072991;28;20241;-85
2021/08/21 06:16:03;;;;;;;21.17;14.23;;;13.90;93.00;;;;;;5054970;28;20213;-85
2021/08/21 06:18:30;;;;;;;21.13;14.27;;;14.00;92.90;;;;;;5054979;28;20179;-85
2021/08/21 06:20:56;;;;;;;18.87;13.53;;;14.00;92.90;;;;;;5072705;28;20589;-85
2021/08/21 06:23:22;;;;;;;17.23;12.63;;;14.10;92.90;;;;;;5055633;28;20180;-85
2021/08/21 06:25:48;;;;;;;15.43;12.27;;;14.30;93.00;;;;;;5058906;28;20179;-85
2021/08/21 06:28:13;;;;;;;17.63;12.40;;;14.40;93.00;;;;;;5058917;28;20639;-85
2021/08/21 06:30:39;;;;;;;17.13;11.33;;;14.50;92.80;;;;;;5058818;28;20336;-85
2021/08/21 06:33:04;;;;;;;16.08;10.50;;;14.60;92.60;;;;;;5058713;28;20213;-85
2021/08/21 06:35:30;;;;;;;17.55;11.77;;;14.70;92.40;;;;;;5076834;28;20249;-85
2021/08/21 06:37:56;;;;;;;21.13;10.80;;;14.80;92.30;;;;;;5058630;28;20179;-85
2021/08/21 06:40:21;;;;;;;13.20;10.47;;;14.80;92.10;;;;;;5076757;28;20188;-85
2021/08/21 06:42:47;;;;;;;16.52;10.13;;;14.90;92.00;;;;;;5058573;28;20635;-85
2021/08/21 06:45:13;;;;;;;11.97;9.67;;;14.90;91.80;;;;;;5058468;28;20225;-85
2021/08/21 06:47:38;;;;;;;11.98;9.65;;;15.00;91.60;;;;;;5076397;28;20168;-85
2021/08/21 06:50:05;;;;;;;10.43;9.13;;;15.00;91.60;;;;;;5076209;28;20244;-85
2021/08/21 06:52:31;;;;;;;13.52;8.70;;;15.10;91.60;;;;;;5076195;28;20167;-85
2021/08/21 06:54:57;;;;;;;9.27;7.88;;;15.20;91.20;;;;;;5076186;28;20266;-85
2021/08/21 06:57:23;;;;;;;10.27;7.30;;;15.30;91.00;;;;;;5076143;28;20217;-84
2021/08/21 06:59:49;;;;;;;7.30;6.60;;;15.30;90.30;;;;;;5058158;28;20179;-85
2021/08/21 07:02:14;;;;;;;10.98;7.22;;;15.30;90.40;;;;;;5076012;28;20244;-85
2021/08/21 07:04:41;;;;;;;10.48;6.82;;;15.30;89.70;;;;;;5076054;28;20258;-85
2021/08/21 07:07:07;;;;;;;13.30;7.22;;;15.40;89.80;;;;;;5058108;28;20187;-85
2021/08/21 07:09:34;;;;;;;11.95;7.25;;;15.50;90.00;;;;;;5058038;28;20179;-85
2021/08/21 07:12:01;;;;;;;11.77;6.90;;;15.60;89.50;;;;;;5057996;28;20558;-85
2021/08/21 07:14:27;;;;;;;7.80;6.85;;;15.60;89.10;;;;;;5076056;28;20249;-85
2021/08/21 07:16:52;;;;;;;8.45;5.40;;;15.70;88.80;;;;;;5075815;28;20290;-85
2021/08/21 07:19:18;;;;;;;5.72;4.43;;;15.70;88.40;;;;;;5076178;28;20179;-85
2021/08/21 07:21:44;;;;;;;10.27;4.45;;;15.70;88.00;;;;;;5057838;28;20800;-85
2021/08/21 07:24:10;;;;;;;11.45;3.20;;;15.80;87.90;;;;;;5075849;28;20647;-84
2021/08/21 07:26:35;;;;;;;7.40;3.53;;;15.80;87.00;;;;;;5057835;28;20175;-84
2021/08/21 07:29:01;;;;;;;5.05;3.25;;;15.80;86.70;;;;;;5057913;28;20543;-84
2021/08/21 07:31:27;;;;;;;4.32;3.03;;;15.90;86.60;;;;;;5075599;28;20198;-84
2021/08/21 07:33:52;;;;;;;4.60;3.10;;;16.00;86.40;;;;;;5057707;28;20228;-85
2021/08/21 07:36:19;;;;;;;5.25;3.13;;;16.00;86.50;;;;;;5075156;28;20670;-85
2021/08/21 07:38:45;;;;;;;7.65;3.00;;;16.10;86.60;;;;;;5075572;28;20171;-85
2021/08/21 07:41:11;;;;;;;9.38;3.08;;;16.20;86.30;;;;;;5057463;28;20198;-85
2021/08/21 07:43:38;;;;;;;5.32;3.30;;;16.30;85.90;;;;;;5057589;28;20175;-84
2021/08/21 07:46:03;;;;;;;4.88;3.40;;;16.40;85.40;;;;;;5057578;28;20203;-84
2021/08/21 07:48:29;;;;;;;5.15;3.72;;;16.40;85.40;;;;;;5075490;28;20244;-85
2021/08/21 07:50:55;;;;;;;5.75;3.50;;;16.50;85.50;;;;;;5057580;28;20191;-85
2021/08/21 07:53:21;;;;;;;6.18;4.07;;;16.60;85.20;;;;;;5057225;28;20172;-85
2021/08/21 07:55:47;;;;;;;11.57;3.65;;;16.70;84.90;;;;;;5075079;28;20195;-85
2021/08/21 07:58:12;;;;;;;6.45;3.97;;;16.70;84.20;;;;;;5057309;28;20172;-85
2021/08/21 08:00:38;;;;;;;4.93;3.00;;;16.90;84.90;;;;;;5057005;28;20279;-85
2021/08/21 08:03:04;;;;;;;5.50;3.33;;;16.90;84.00;;;;;;5057142;28;20171;-84
2021/08/21 08:05:29;;;;;;;4.53;3.53;;;17.00;83.70;;;;;;5075109;28;20174;-84
2021/08/21 08:07:55;;;;;;;7.88;2.97;;;17.10;83.40;;;;;;5057101;28;20228;-84
2021/08/21 08:10:21;;;;;;;7.57;3.22;;;17.10;83.10;;;;;;5074966;28;20195;-85
2021/08/21 08:12:47;;;;;;;7.40;3.50;;;17.30;82.40;;;;;;5074810;28;20254;-84
2021/08/21 08:15:13;;;;;;;5.82;3.03;;;17.30;81.80;;;;;;5074712;28;20206;-84
2021/08/21 08:17:38;;;;;;;5.97;3.22;;;17.40;81.50;;;;;;5074806;28;20301;-84
2021/08/21 08:20:06;;;;;;;6.85;2.65;;;17.50;81.20;;;;;;5056498;28;20179;-84
2021/08/21 08:22:33;;;;;;;3.97;3.13;;;17.70;81.10;;;;;;5056749;28;20176;-84
2021/08/21 08:24:59;;;;;;;9.00;3.08;;;17.70;81.60;;;;;;5056624;28;20171;-84
2021/08/21 08:27:24;;;;;;;5.63;3.20;;;17.80;80.30;;;;;;5056628;28;20266;-84
2021/08/21 08:29:50;;;;;;;6.50;3.45;;;17.80;80.90;;;;;;5074441;28;20175;-84
2021/08/21 08:32:15;;;;;;;4.47;2.90;;;17.90;81.00;;;;;;5074363;28;20168;-84
2021/08/21 08:34:41;;;;;;;5.32;3.35;;;17.90;79.80;;;;;;5056784;28;20601;-84
2021/08/21 08:37:10;;;;;;;5.50;3.42;;;18.00;79.10;;;;;;5056282;28;20289;-84
2021/08/21 08:39:36;;;;;;;6.90;2.90;;;18.00;80.30;;;;;;5056284;28;20168;-84
2021/08/21 08:42:03;;;;;;;3.88;2.72;;;18.00;79.10;;;;;;5074171;28;20194;-84
2021/08/21 08:44:32;;;;;;;4.47;2.30;;;18.10;79.50;;;;;;5056171;28;20182;-84
2021/08/21 08:47:00;;;;;;;8.93;2.60;;;18.20;78.10;;;;;;5073292;28;20183;-84
2021/08/21 08:49:27;;;;;;;4.35;2.75;;;18.20;77.60;;;;;;5074030;28;20178;-84
2021/08/21 08:51:53;;;;;;;2.90;2.38;;;18.20;78.60;;;;;;5073949;28;20269;-84
2021/08/21 08:54:19;;;;;;;3.65;2.50;;;18.20;77.00;;;;;;5073932;28;20543;-84
2021/08/21 08:56:45;;;;;;;3.40;2.28;;;18.20;77.60;;;;;;5073764;28;20199;-84
2021/08/21 08:59:10;;;;;;;3.88;2.20;;;18.30;75.90;;;;;;5074281;28;20163;-84
2021/08/21 09:01:40;;;;;;;3.80;2.00;;;18.20;75.70;;;;;;5073695;28;20249;-84
2021/08/21 09:04:20;;;;;;;4.35;2.22;;;18.20;76.60;;;;;;5055848;28;20171;-85
2021/08/21 09:06:47;;;;;;;6.70;2.70;;;18.40;76.20;;;;;;5073984;28;20239;-84
2021/08/21 09:09:18;;;;;;;4.60;2.13;;;18.50;76.10;;;;;;5055842;28;20199;-84
2021/08/21 09:11:54;;;;;;;3.22;1.90;;;18.50;75.20;;;;;;5055784;28;20199;-85
2021/08/21 09:14:28;;;;;;;3.50;2.10;;;18.60;74.90;;;;;;5073932;28;20155;-84
2021/08/21 09:17:14;;;;;;;3.38;1.90;;;18.60;74.50;;;;;;5073538;28;20224;-84
2021/08/21 09:19:40;;;;;;;3.58;1.90;;;18.70;74.90;;;;;;5055654;28;20627;-84
2021/08/21 09:22:07;;;;;;;2.30;1.65;;;18.80;74.20;;;;;;5073303;28;20203;-84
2021/08/21 09:24:34;;;;;;;4.57;1.92;;;18.90;73.80;;;;;;5073490;28;20262;-84
2021/08/21 09:27:18;;;;;;;2.97;1.58;;;18.90;74.20;;;;;;5073436;28;20171;-85
2021/08/21 09:29:44;;;;;;;5.45;1.67;;;19.00;73.50;;;;;;5073416;28;20216;-84
2021/08/21 09:32:10;;;;;;;2.95;1.50;;;19.10;72.30;;;;;;5073316;28;20274;-84
2021/08/21 09:34:38;;;;;;;4.13;1.15;;;19.00;70.90;;;;;;5055487;28;20172;-84
2021/08/21 09:37:07;;;;;;;2.55;1.33;;;19.20;68.40;;;;;;5055322;28;20552;-84
2021/08/21 09:39:38;;;;;;;2.83;1.50;;;19.20;68.80;;;;;;5073227;28;20183;-84
2021/08/21 09:42:06;;;;;;;3.40;1.50;;;19.20;68.20;;;;;;5073228;28;20556;-85
2021/08/21 09:44:40;;;;;;;2.08;1.10;;;19.40;69.30;;;;;;5055215;28;20171;-85
2021/08/21 09:47:14;;;;;;;7.60;1.52;;;19.40;66.30;;;;;;5073233;28;20201;-85
2021/08/21 09:49:42;;;;;;;7.07;1.60;;;19.50;68.50;;;;;;5055264;28;20193;-85
2021/08/21 09:52:11;;;;;;;4.07;1.40;;;19.70;67.40;;;;;;5073014;28;20716;-85
2021/08/21 09:54:38;;;;;;;1.75;1.23;;;19.70;63.60;;;;;;5055184;28;20186;-85
2021/08/21 09:57:04;;;;;;;2.47;1.40;;;19.90;65.70;;;;;;5055187;28;20206;-85
2021/08/21 09:59:56;;;;;;;2.10;1.35;;;20.00;66.10;;;;;;5061672;28;20175;-85
2021/08/21 10:02:23;;;;;;;4.53;1.20;;;20.10;66.20;;;;;;5061804;28;20178;-85
2021/08/21 10:04:48;;;;;;;2.33;1.20;;;20.10;64.30;;;;;;5079926;28;20253;-85
2021/08/21 10:07:24;;;;;;;1.63;1.17;;;20.20;63.50;;;;;;5079598;28;20249;-85
2021/08/21 10:09:52;;;;;;;1.98;1.05;;;20.40;66.00;;;;;;5079927;28;20242;-85
2021/08/21 10:12:20;;;;;;;2.30;1.05;;;20.50;64.80;;;;;;5079852;28;20250;-85
2021/08/21 10:14:47;;;;;;;3.50;1.30;;;20.50;65.10;;;;;;5079611;28;20240;-85
2021/08/21 10:17:17;;;;;;;3.35;1.33;;;20.80;66.80;;;;;;5079573;28;20197;-85
2021/08/21 10:19:44;;;;;;;2.53;1.42;;;20.90;65.00;;;;;;5079605;28;20168;-86
2021/08/21 10:22:10;;;;;;;3.55;1.60;;;20.90;63.70;;;;;;5061377;28;20703;-86
2021/08/21 10:24:38;;;;;;;2.33;1.50;;;20.90;64.50;;;;;;5079556;28;20254;-86
2021/08/21 10:27:15;;;;;;;2.45;1.30;;;21.20;64.30;;;;;;5079510;28;20514;-86
2021/08/21 10:30:05;;;;;;;3.72;1.13;;;21.10;63.80;;;;;;5079583;28;20160;-85
2021/08/21 10:32:40;;;;;;;3.17;1.42;;;21.20;63.70;;;;;;5061540;28;20168;-85
2021/08/21 10:35:08;;;;;;;3.13;1.52;;;21.20;65.30;;;;;;5079656;28;20517;-85
2021/08/21 10:37:39;;;;;;;6.18;1.10;;;21.20;66.80;;;;;;5061380;28;20186;-85
2021/08/21 10:40:27;;;;;;;1.65;1.40;;;21.30;66.10;;;;;;5079553;28;20195;-85
2021/08/21 10:42:53;;;;;;;3.78;1.60;;;21.20;66.60;;;;;;5079349;28;20229;-85
2021/08/21 10:45:44;;;;;;;2.90;1.60;;;21.20;67.20;;;;;;5079707;28;20221;-87
2021/08/21 10:48:34;;;;;;;6.18;1.45;;;21.40;66.70;;;;;;5079607;28;20216;-86
2021/08/21 10:51:03;;;;;;;3.47;1.50;;;21.50;64.60;;;;;;5047186;28;20282;-87
2021/08/21 10:53:30;;;;;;;3.95;1.60;;;21.30;64.80;;;;;;5061350;28;20199;-86
2021/08/21 10:55:58;;;;;;;3.90;1.58;;;21.30;67.30;;;;;;5061252;28;20210;-87
2021/08/21 10:58:28;;;;;;;6.72;2.65;;;21.40;62.90;;;;;;5061400;28;20167;-89
2021/08/21 11:01:01;;;;;;;4.53;1.65;;;21.40;64.20;;;;;;5061418;28;20199;-88
2021/08/21 11:03:30;;;;;;;2.45;1.80;;;21.40;66.10;;;;;;5079676;28;20160;-88
2021/08/21 11:05:58;;;;;;;4.35;1.85;;;21.70;65.10;;;;;;5061442;28;20179;-85
2021/08/21 11:08:26;;;;;;;4.43;1.55;;;21.80;64.30;;;;;;5061157;28;20643;-86
2021/08/21 11:13:59;;;;;;;3.00;1.50;;;21.80;65.60;;;;;;5075905;28;20183;-86
2021/08/21 11:16:54;;;;;;;1.88;1.40;;;22.10;64.70;;;;;;5057916;28;20192;-85
2021/08/21 11:19:22;;;;;;;2.65;1.58;;;22.20;58.50;;;;;;5075877;28;20574;-86
2021/08/21 11:21:49;;;;;;;4.22;1.70;;;22.20;62.50;;;;;;5075677;28;20286;-85
2021/08/21 11:24:30;;;;;;;2.38;1.80;;;22.30;62.20;;;;;;5075724;28;20183;-85
2021/08/21 11:27:28;;;;;;;2.75;1.60;;;22.30;63.30;;;;;;5057800;28;20175;-86
2021/08/21 11:32:45;;;;;;;9.07;3.90;;;22.50;59.60;;;;;;5075565;28;20177;-86
2021/08/21 11:35:30;;;;;;;4.97;1.83;;;22.30;62.50;;;;;;5075796;28;20166;-86
2021/08/21 11:38:01;;;;;;;3.70;1.98;;;22.70;60.20;;;;;;5075511;28;20170;-86
2021/08/21 11:40:38;;;;;;;1.83;1.33;;;22.60;59.20;;;;;;5075491;28;20256;-86
2021/08/21 11:43:10;;;;;;;3.22;1.52;;;22.70;59.90;;;;;;5057550;28;20250;-87
2021/08/21 11:45:36;;;;;;;1.75;1.15;;;22.80;61.10;;;;;;5075775;28;20201;-87
2021/08/21 11:48:03;;;;;;;1.52;1.40;;;23.00;56.10;;;;;;5057501;28;20179;-86
2021/08/21 11:50:33;;;;;;;3.97;1.10;;;23.00;58.40;;;;;;5057273;28;20229;-86
2021/08/21 11:53:09;;;;;;;1.38;0.90;;;23.20;56.40;;;;;;5075417;28;20168;-86
2021/08/21 11:55:37;;;;;;;1.42;1.30;;;23.20;56.40;;;;;;5075175;28;20187;-87
2021/08/21 11:58:05;;;;;;;2.83;1.30;;;23.10;58.00;;;;;;5058122;28;20179;-87
2021/08/21 12:00:33;;;;;;;1.50;1.40;;;23.30;54.30;;;;;;5057173;28;20191;-87
2021/08/21 12:03:02;;;;;;;2.33;1.52;;;23.00;58.00;;;;;;5057110;28;20262;-86
2021/08/21 12:05:36;;;;;;;1.88;1.27;;;23.00;55.60;;;;;;5057100;28;20183;-86
2021/08/21 12:08:22;;;;;;;1.38;1.05;;;22.80;56.70;;;;;;5075043;28;20172;-85
2021/08/21 12:10:57;;;;;;;1.65;1.20;;;22.70;56.80;;;;;;5075247;28;20183;-85
2021/08/21 12:13:36;;;;;;;1.83;1.27;;;22.50;53.50;;;;;;5074865;28;20627;-86
2021/08/21 12:16:13;;;;;;;1.80;1.20;;;22.50;55.60;;;;;;5074655;28;20210;-86
2021/08/21 12:18:41;;;;;;;1.42;1.15;;;22.70;54.10;;;;;;5074811;28;20183;-85
2021/08/21 12:21:16;;;;;;;1.98;1.33;;;22.50;55.70;;;;;;5055345;28;20687;-85
2021/08/21 12:23:44;;;;;;;6.25;1.45;;;22.90;54.00;;;;;;5056670;28;20174;-85
2021/08/21 12:26:10;;;;;;;2.63;1.38;;;22.80;55.10;;;;;;5056766;28;20588;-85
2021/08/21 12:28:38;;;;;;;1.42;1.00;;;23.10;57.00;;;;;;5056543;28;20176;-85
2021/08/21 12:31:06;;;;;;;2.85;1.20;;;23.00;55.60;;;;;;5074346;28;20218;-87
2021/08/21 12:33:37;;;;;;;1.10;1.00;;;23.20;55.00;;;;;;5074389;28;20172;-86
2021/08/21 12:36:13;;;;;;;2.17;1.40;;;23.10;52.80;;;;;;5074282;28;20198;-86
2021/08/21 12:38:41;;;;;;;1.30;1.20;;;23.00;56.30;;;;;;5074208;28;20198;-85
2021/08/21 12:41:14;;;;;;;1.38;1.00;;;23.30;54.00;;;;;;5074140;28;20603;-86
2021/08/21 12:43:41;;;;;;;1.83;1.23;;;23.40;53.10;;;;;;5056394;28;20179;-86
2021/08/21 12:46:20;;;;;;;1.30;1.20;;;23.50;54.10;;;;;;5074401;28;20171;-86
2021/08/21 12:48:48;;;;;;;2.75;1.00;;;23.50;54.40;;;;;;5074334;28;20639;-86
2021/08/21 12:51:33;;;;;;;3.15;1.35;;;23.60;57.20;;;;;;5073986;28;20325;-86
2021/08/21 12:54:12;;;;;;;1.73;1.02;;;23.80;52.30;;;;;;5074036;28;20159;-86
2021/08/21 12:56:39;;;;;;;0.98;0.88;;;23.80;52.70;;;;;;5056025;28;20198;-86